Tybee Island, GA (31328)

8:17 AM EST on February 10, 2016 (GMT -0500)
Tid-Bit | | Change Station
CLOSE
Current Station
Personal Weather Station
Location: Tybee Island, GA
Elevation: 10 ft
Nearby Weather Stations
Active Advisory: Flood Warning

Elev 10 ft 32.01 °N, 80.85 °W | Updated 10 minutes ago

Clear
Clear
31.9 °F
Feels Like 26 °F
N
6.0
Wind Variable Wind from NW
Gusts 11.0 mph

Today
High -- | Low -- °F
--% Chance of Precip.
Yesterday
High -- | Low -- °F
Precip. -- in
Pressure 30.09 in
Visibility 10.0 miles
Clouds Clear
Windchill 26 °F
Dew Point 25 °F
Humidity 76%
Rainfall 0.00 in
Snow Depth Not available.
7:10 AM 6:05 PM
Waxing Crescent, 5% visible
METAR KHXD 101250Z 26008KT 10SM SKC 00/M05 A3009
Pressure 30.09 in
Visibility 10.0 miles
Clouds Clear
Windchill 26 °F
Dew Point 25 °F
Humidity 76%
Rainfall 0.00 in
Snow Depth Not available.
7:10 AM 6:05 PM
Waxing Crescent, 5% visible
METAR KHXD 101250Z 26008KT 10SM SKC 00/M05 A3009

10-Day Weather Forecast

Almanac

Astronomy

Feb. 10, 2016 Rise Set
Actual Time
Civil Twilight
Nautical Twilight
Astronomical Twilight
Moon
Length of Visible Light
Length of Day
Tomorrow will be .
, % of the Moon is Illuminated

Today's Extremes

State Highs State Lows

Community

WunderPhotos

Upload Photos

1,891,839 photos uploaded!

WunderBlog® & News

Nearby

Air Quality

  Air Quality AQ Index Pollutant
Not available.

Snow Depth

Station Depth Elevation

Earthquake Activity

City Distance Mag. Time & Date
Minimum magnitude displayed is 2.5.

Coastal Water Temperatures

Place Temperature

Stations

Nearby Weather Stations

Station Location Temp. Windchill Dew Point Humidity Wind Precip. Elev Updated Type
                   

Watches & Warnings

Flood Warning
Issued: 8:30 PM EST Feb. 9, 2016 – National Weather Service

The Flood Warning continues for
the Ogeechee river near Eden.
* At 8 PM Tuesday the stage was 13.0 feet.
* Flood stage is 11.0 feet.
* Minor flooding is occurring.
* Forecast, the river will remain nearly steady or slowly fall.
* At 14.0 feet, several homes and camps near the river are surrounded
by water.


Lat... Lon 3246 8160 3252 8152 3227 8140 3208 8133
          3206 8143 3223 8150